Absecon Highlands, New Jersey
Current Conditions -  °F | °C
As of 8:54 PM on Friday 24 Oct 2014 (Local Time) from KACY Reporting Station
Clear Clear  
Wind Chill: 56°   Ceiling: Unl
Heat Index: 56°   Visibility: 10mi
Dew Point: 45°   Wind: 6mph
Humidity: 67%   Direction: 270°W
Pressure: 29.85"   Gusts: NA
Location:  39.4315°N, 74.5003°W
Report Text: KACY 250054Z 27005KT 10SM CLR 13/07 A2985 RMK AO2 SLP107 T01330072
Loading
Personal Weather Stations






























Interactive Weather Map New forecast layout! Learn more

10-Day Weather Forecast

Advertisements
Track Severe Weather on mobile